createdAt,value
2017-12-05T00:06:09.398Z,9.10
2017-12-05T00:26:46.512Z,8.03
2017-12-05T00:47:23.628Z,9.13
2017-12-05T01:07:59.830Z,8.27
2017-12-05T01:28:39.089Z,10.10
2017-12-05T01:49:12.731Z,9.70
2017-12-05T02:09:48.710Z,8.73
2017-12-05T02:30:24.247Z,9.07
2017-12-05T02:50:57.423Z,9.60
2017-12-05T03:11:33.654Z,10.03
2017-12-05T03:32:07.648Z,9.20
2017-12-05T03:52:41.690Z,8.53
2017-12-05T04:13:19.108Z,7.50
2017-12-05T04:33:52.554Z,6.90
2017-12-05T04:54:29.000Z,6.13
2017-12-05T05:15:04.620Z,6.63
2017-12-05T05:35:39.893Z,5.63
2017-12-05T05:56:15.160Z,6.17
2017-12-05T06:16:52.742Z,5.83
2017-12-05T06:37:26.964Z,6.30
2017-12-05T06:58:04.216Z,6.00
2017-12-05T07:18:35.023Z,7.10
2017-12-05T07:39:06.298Z,6.67
2017-12-05T07:59:38.498Z,6.30
2017-12-05T08:20:13.772Z,6.73
2017-12-05T08:40:46.256Z,6.10
2017-12-05T09:01:21.242Z,6.87
2017-12-05T09:22:02.744Z,6.10
2017-12-05T09:42:37.972Z,6.27
2017-12-05T10:03:08.899Z,7.37
2017-12-05T10:23:44.443Z,8.30
2017-12-05T10:44:16.369Z,8.10
2017-12-05T11:04:51.640Z,8.83
2017-12-05T11:25:25.685Z,9.23
2017-12-05T11:45:58.244Z,7.70
2017-12-05T12:06:32.234Z,8.87
2017-12-05T12:27:04.432Z,8.43
2017-12-05T12:47:39.705Z,9.93
2017-12-05T13:08:15.903Z,9.77
2017-12-05T13:28:49.343Z,11.50
2017-12-05T13:49:25.215Z,10.00
2017-12-05T14:09:59.558Z,9.67
2017-12-05T14:30:34.834Z,10.17
2017-12-05T14:51:07.961Z,12.00
2017-12-05T15:11:48.143Z,12.30
2017-12-05T15:32:22.491Z,12.77
2017-12-05T15:52:56.977Z,11.80
2017-12-05T16:13:31.806Z,11.93
2017-12-05T16:34:10.476Z,12.53
2017-12-05T16:54:43.273Z,13.20
2017-12-05T17:15:19.773Z,13.60
2017-12-05T17:35:55.166Z,13.63
2017-12-05T18:14:31.991Z,13.83
2017-12-05T18:35:06.032Z,17.47
2017-12-05T18:55:41.300Z,15.67
2017-12-05T19:16:14.423Z,16.80
2017-12-05T19:36:47.970Z,16.23
2017-12-05T19:57:20.969Z,15.30
2017-12-05T20:17:54.091Z,14.40
2017-12-05T20:38:30.631Z,30.73
2017-12-05T20:59:07.711Z,11.53
2017-12-05T21:19:47.899Z,12.33
2017-12-05T21:40:29.009Z,10.77
2017-12-05T22:01:05.509Z,13.23
2017-12-05T22:21:39.906Z,11.57
2017-12-05T22:42:13.902Z,13.10
2017-12-05T23:02:49.193Z,12.27
2017-12-05T23:23:27.208Z,13.70
2017-12-05T23:44:04.629Z,14.70
